AAL1095 KSAN-MMMX
Flight info
| Callsign | AAL1095 |
|---|---|
| Flight time | N/A |
| Altitude | 25000 |
| Route | CLSSY3 CENZA DCT BROWS DCT URSEV DCT GOLFO DCT NOTOT/N0216F170 DCT NABAS DCT ELEGU DCT KATLI DCT CAFIS DCT AVOXU DCT DGO DCT VEVRA DCT SEKUB DCT XOLGA DCT ESTIV DCT ZCL DCT GABLI DCT HORTA DCT PIGVU DCT QET DCT DARAN DARA3A0 |
| Aircraft | DC6/M-SDE1FGHIRWXY/S |
Departure
| Time | 2026-05-07 02:55 |
|---|---|
| Airport | San Diego International Airport (KSAN) |
Arrival
| Time | N/A |
|---|---|
| Airport | Mexico City Benito Juárez International Airport (MMMX) |
| Time | Latitude | Longitude | Altitude | Speed | Heading |
|---|---|---|---|---|---|
| 2026-05-07 02:24 | 32.73437 | -117.18493 | 26 ft | 0 kts | 15° |
| 2026-05-07 02:42 | 32.73438 | -117.18493 | 25 ft | 4 kts | 15° |
| 2026-05-07 02:42 | 32.73441 | -117.18492 | 25 ft | 2 kts | 15° |
| 2026-05-07 02:42 | 32.73424 | -117.18497 | 28 ft | 2 kts | 15° |
| 2026-05-07 02:42 | 32.73407 | -117.18503 | 29 ft | 3 kts | 15° |
| 2026-05-07 02:43 | 32.73392 | -117.18508 | 27 ft | 0 kts | 15° |
| 2026-05-07 02:47 | 32.73396 | -117.18506 | 27 ft | 2 kts | 31° |
| 2026-05-07 02:47 | 32.73400 | -117.18496 | 28 ft | 1 kts | 104° |
| 2026-05-07 02:47 | 32.73395 | -117.18489 | 28 ft | 1 kts | 162° |
| 2026-05-07 02:48 | 32.73363 | -117.18470 | 26 ft | 9 kts | 135° |
| 2026-05-07 02:48 | 32.73332 | -117.18371 | 29 ft | 17 kts | 107° |
| 2026-05-07 02:48 | 32.73289 | -117.18212 | 24 ft | 20 kts | 108° |
| 2026-05-07 02:48 | 32.73253 | -117.18060 | 25 ft | 18 kts | 105° |
| 2026-05-07 02:49 | 32.73221 | -117.17927 | 23 ft | 16 kts | 107° |
| 2026-05-07 02:49 | 32.73192 | -117.17814 | 25 ft | 12 kts | 107° |
| 2026-05-07 02:49 | 32.73171 | -117.17725 | 29 ft | 11 kts | 105° |
| 2026-05-07 02:49 | 32.73161 | -117.17682 | 26 ft | 0 kts | 105° |
| 2026-05-07 02:50 | 32.73159 | -117.17675 | 29 ft | 2 kts | 123° |
| 2026-05-07 02:50 | 32.73137 | -117.17663 | 25 ft | 1 kts | 179° |
| 2026-05-07 02:50 | 32.73133 | -117.17664 | 25 ft | 0 kts | 186° |
| 2026-05-07 02:51 | 32.73131 | -117.17664 | 25 ft | 1 kts | 186° |
| 2026-05-07 02:52 | 32.73105 | -117.17669 | 24 ft | 7 kts | 189° |
| 2026-05-07 02:52 | 32.73056 | -117.17695 | 22 ft | 8 kts | 247° |
| 2026-05-07 02:52 | 32.73057 | -117.17739 | 22 ft | 0 kts | 284° |
| 2026-05-07 02:53 | 32.73058 | -117.17744 | 23 ft | 8 kts | 284° |
| 2026-05-07 02:53 | 32.73124 | -117.18012 | 21 ft | 59 kts | 286° |
| 2026-05-07 02:54 | 32.73302 | -117.18652 | 38 ft | 100 kts | 289° |
| 2026-05-07 02:54 | 32.73488 | -117.19527 | 157 ft | 116 kts | 288° |
| 2026-05-07 02:54 | 32.73740 | -117.20519 | 277 ft | 136 kts | 290° |
| 2026-05-07 02:54 | 32.74097 | -117.21618 | 490 ft | 151 kts | 293° |
| 2026-05-07 02:55 | 32.74496 | -117.22788 | 782 ft | 156 kts | 293° |
| 2026-05-07 02:55 | 32.74881 | -117.24063 | 898 ft | 170 kts | 289° |
| 2026-05-07 02:55 | 32.75270 | -117.25412 | 1004 ft | 175 kts | 291° |
| 2026-05-07 02:55 | 32.75683 | -117.26788 | 1157 ft | 177 kts | 291° |
| 2026-05-07 02:56 | 32.76092 | -117.28181 | 1339 ft | 179 kts | 291° |
| 2026-05-07 02:56 | 32.76500 | -117.29589 | 1499 ft | 181 kts | 291° |
| 2026-05-07 02:56 | 32.76920 | -117.31005 | 1686 ft | 182 kts | 291° |
| 2026-05-07 02:56 | 32.77342 | -117.32430 | 1880 ft | 183 kts | 291° |
| 2026-05-07 02:57 | 32.77747 | -117.33868 | 2074 ft | 184 kts | 290° |
| 2026-05-07 02:57 | 32.78094 | -117.35339 | 2256 ft | 186 kts | 284° |
| 2026-05-07 02:57 | 32.78256 | -117.36868 | 2475 ft | 188 kts | 273° |
| 2026-05-07 02:57 | 32.78145 | -117.38421 | 2671 ft | 190 kts | 258° |
| 2026-05-07 02:58 | 32.77419 | -117.39719 | 2767 ft | 200 kts | 220° |
| 2026-05-07 02:58 | 32.76103 | -117.40239 | 2929 ft | 205 kts | 181° |
| 2026-05-07 02:58 | 32.74735 | -117.39799 | 3142 ft | 203 kts | 158° |
| 2026-05-07 02:58 | 32.73414 | -117.39235 | 3383 ft | 201 kts | 161° |
| 2026-05-07 02:59 | 32.72077 | -117.38708 | 3535 ft | 205 kts | 161° |
| 2026-05-07 02:59 | 32.70715 | -117.38168 | 3689 ft | 207 kts | 161° |
| 2026-05-07 02:59 | 32.69342 | -117.37612 | 3835 ft | 210 kts | 161° |
| 2026-05-07 02:59 | 32.68091 | -117.36754 | 3910 ft | 212 kts | 131° |
| 2026-05-07 03:00 | 32.67559 | -117.35152 | 3987 ft | 213 kts | 90° |
| 2026-05-07 03:00 | 32.67689 | -117.33427 | 4182 ft | 209 kts | 86° |
| 2026-05-07 03:00 | 32.67708 | -117.31703 | 4350 ft | 209 kts | 88° |
| 2026-05-07 03:00 | 32.67710 | -117.30008 | 4599 ft | 205 kts | 87° |
| 2026-05-07 03:01 | 32.67704 | -117.28340 | 4914 ft | 200 kts | 89° |
| 2026-05-07 03:01 | 32.67702 | -117.27785 | 5001 ft | 198 kts | 87° |